Time;durP1;ratioP1;P1;durP2;ratioP2;P2;SDS_P1;SDS_P2;PMS_P1;PMS_P2;Temp;Humidity;BMP_temperature;BMP_pressure;BME280_temperature;BME280_humidity;BME280_pressure;Samples;Min_cycle;Max_cycle;Signal;HPM_P1;HPM_P2
2021/05/05 00:02:02;;;;;;;;;;;;;;;11.41;66.65;98582.63;5137070;27;19972;-74
2021/05/05 00:04:33;;;;;;;;;;;;;;;11.38;66.61;98586.94;5135916;27;19923;-73
2021/05/05 00:07:08;;;;;;;;;;;;;;;11.37;66.88;98580.19;5118876;27;19931;-74
2021/05/05 00:09:37;;;;;;;;;;;;;;;11.37;66.80;98575.06;5136908;27;19930;-73
2021/05/05 00:12:06;;;;;;;;;;;;;;;11.35;66.89;98581.91;5136860;27;20368;-73
2021/05/05 00:14:34;;;;;;;;;;;;;;;11.34;67.01;98580.25;5118131;27;20322;-74
2021/05/05 00:17:02;;;;;;;;;;;;;;;11.31;67.16;98580.28;5136868;27;19927;-74
2021/05/05 00:19:33;;;;;;;;;;;;;;;11.31;67.39;98593.06;5136650;27;20402;-75
2021/05/05 00:22:04;;;;;;;;;;;;;;;11.31;67.47;98598.19;5136334;27;20331;-73
2021/05/05 00:24:35;;;;;;;;;;;;;;;11.34;67.50;98585.34;5136156;27;19935;-74
2021/05/05 00:27:08;;;;;;;;;;;;;;;11.38;67.38;98587.81;5136276;27;19930;-73
2021/05/05 00:29:40;;;;;;;;;;;;;;;11.40;66.76;98577.53;5136135;27;20018;-73
2021/05/05 00:32:11;;;;;;;;;;;;;;;11.41;66.78;98581.78;5118154;27;19923;-74
2021/05/05 00:34:43;;;;;;;;;;;;;;;11.46;66.97;98579.97;5136441;27;20392;-73
2021/05/05 00:37:14;;;;;;;;;;;;;;;11.45;66.73;98579.13;5118599;27;19963;-74
2021/05/05 00:39:46;;;;;;;;;;;;;;;11.46;67.01;98574.88;5135975;27;19976;-73
2021/05/05 00:42:18;;;;;;;;;;;;;;;11.46;66.48;98569.75;5136395;27;19924;-73
2021/05/05 00:44:50;;;;;;;;;;;;;;;11.50;66.67;98568.81;5136184;27;19931;-74
2021/05/05 00:47:23;;;;;;;;;;;;;;;11.54;66.04;98557.63;5136479;27;19931;-74
2021/05/05 00:49:55;;;;;;;;;;;;;;;11.54;65.71;98557.63;5136295;27;20490;-74
2021/05/05 00:55:13;;;;;;;;;;;;;;;11.48;65.83;98552.66;5079954;28;20037;-72
2021/05/05 00:57:47;;;;;;;;;;;;;;;11.43;66.25;98562.16;5095337;28;19930;-71
2021/05/05 01:00:20;;;;;;;;;;;;;;;11.34;66.84;98554.69;5095050;28;20396;-71
2021/05/05 01:02:48;;;;;;;;;;;;;;;11.27;67.20;98553.16;5095016;28;20449;-71
2021/05/05 01:05:20;;;;;;;;;;;;;;;11.22;67.56;98548.16;5094910;28;19924;-71
2021/05/05 01:07:49;;;;;;;;;;;;;;;11.18;67.44;98538.03;5094904;28;19931;-71
2021/05/05 01:10:22;;;;;;;;;;;;;;;11.14;67.77;98537.25;5094872;28;19924;-71
2021/05/05 01:12:52;;;;;;;;;;;;;;;11.12;67.31;98543.25;5095147;28;19977;-71
2021/05/05 01:15:23;;;;;;;;;;;;;;;11.08;67.30;98541.66;5094745;28;19954;-71
2021/05/05 01:17:52;;;;;;;;;;;;;;;11.05;67.51;98549.38;5094714;28;19924;-71
2021/05/05 01:20:27;;;;;;;;;;;;;;;11.03;67.52;98548.56;5094657;28;20369;-71
2021/05/05 01:22:57;;;;;;;;;;;;;;;11.05;68.12;98557.03;5094665;28;19931;-71
2021/05/05 01:25:28;;;;;;;;;;;;;;;11.06;67.80;98553.63;5094596;28;19977;-71
2021/05/05 01:27:57;;;;;;;;;;;;;;;11.07;68.31;98555.28;5094639;28;19924;-71
2021/05/05 01:30:26;;;;;;;;;;;;;;;11.09;68.17;98553.53;5094236;28;19925;-71
2021/05/05 01:33:09;;;;;;;;;;;;;;;11.09;68.32;98558.63;5094323;28;19924;-71
2021/05/05 01:35:42;;;;;;;;;;;;;;;11.08;68.14;98562.94;5093574;28;20020;-71
2021/05/05 01:38:14;;;;;;;;;;;;;;;11.07;68.38;98560.38;5094675;28;19989;-71
2021/05/05 01:40:47;;;;;;;;;;;;;;;11.07;68.20;98565.50;5094405;28;19924;-71
2021/05/05 01:43:19;;;;;;;;;;;;;;;11.05;68.39;98559.56;5094737;28;19924;-71
2021/05/05 01:45:50;;;;;;;;;;;;;;;11.06;68.14;98558.72;5094437;28;19928;-71
2021/05/05 01:48:21;;;;;;;;;;;;;;;11.06;68.15;98558.72;5094394;28;19924;-71
2021/05/05 01:50:52;;;;;;;;;;;;;;;11.06;68.17;98563.81;5094295;28;19946;-71
2021/05/05 01:53:21;;;;;;;;;;;;;;;11.04;68.19;98560.44;5093517;28;19924;-71
2021/05/05 01:55:49;;;;;;;;;;;;;;;11.04;68.26;98555.31;5094237;28;19977;-71
2021/05/05 01:58:28;;;;;;;;;;;;;;;11.03;67.94;98558.78;5093937;28;19924;-71
2021/05/05 02:01:07;;;;;;;;;;;;;;;11.04;67.89;98560.44;5094174;28;19924;-71
2021/05/05 02:03:39;;;;;;;;;;;;;;;11.00;68.05;98563.94;5093110;28;19924;-71
2021/05/05 02:06:21;;;;;;;;;;;;;;;10.93;68.74;98558.13;5094253;28;19924;-72
2021/05/05 02:09:04;;;;;;;;;;;;;;;10.85;68.74;98554.03;5094107;28;19930;-71
2021/05/05 02:11:37;;;;;;;;;;;;;;;10.81;68.81;98549.88;5094184;28;19924;-71
2021/05/05 02:14:09;;;;;;;;;;;;;;;10.76;69.07;98540.59;5094145;28;20369;-71
2021/05/05 02:16:40;;;;;;;;;;;;;;;10.74;69.04;98547.44;5093719;28;19924;-71
2021/05/05 02:19:14;;;;;;;;;;;;;;;10.70;68.82;98535.59;5075728;28;19928;-71
2021/05/05 02:21:45;;;;;;;;;;;;;;;10.67;68.90;98535.69;5093144;28;19924;-71
2021/05/05 02:24:18;;;;;;;;;;;;;;;10.63;68.96;98522.97;5094019;28;20324;-71
2021/05/05 02:26:50;;;;;;;;;;;;;;;10.56;69.33;98522.28;5094038;28;19924;-71
2021/05/05 02:29:21;;;;;;;;;;;;;;;10.46;69.87;98520.75;5094020;28;19924;-71
2021/05/05 02:32:05;;;;;;;;;;;;;;;10.42;69.80;98516.59;5093906;28;19925;-71
2021/05/05 02:34:37;;;;;;;;;;;;;;;10.38;70.21;98517.53;5094183;28;19928;-71
2021/05/05 02:37:12;;;;;;;;;;;;;;;10.36;70.37;98518.44;5093711;28;20434;-71
2021/05/05 02:39:46;;;;;;;;;;;;;;;10.37;70.69;98520.94;5075538;28;19967;-71
2021/05/05 02:42:18;;;;;;;;;;;;;;;10.33;70.36;98526.97;5093437;28;20297;-71
2021/05/05 02:44:50;;;;;;;;;;;;;;;10.28;70.96;98527.91;5076092;28;20376;-71
2021/05/05 02:47:22;;;;;;;;;;;;;;;10.28;71.31;98526.22;5096655;28;20288;-71
2021/05/05 02:49:57;;;;;;;;;;;;;;;10.27;71.04;98527.06;5047142;28;19935;-70
2021/05/05 02:52:28;;;;;;;;;;;;;;;10.29;71.63;98529.63;5097119;28;20382;-71
2021/05/05 02:55:00;;;;;;;;;;;;;;;10.29;71.59;98532.16;5057213;28;19925;-71
2021/05/05 02:57:32;;;;;;;;;;;;;;;10.28;71.24;98533.88;5057204;28;20393;-71
2021/05/05 03:00:03;;;;;;;;;;;;;;;10.33;71.59;98533.78;5056805;28;19924;-71
2021/05/05 03:02:34;;;;;;;;;;;;;;;10.29;70.80;98533.00;5057003;28;19932;-71
2021/05/05 03:05:08;;;;;;;;;;;;;;;10.27;70.88;98524.53;5057038;28;19925;-71
2021/05/05 03:07:42;;;;;;;;;;;;;;;10.26;71.30;98529.66;5056996;28;19975;-71
2021/05/05 03:10:14;;;;;;;;;;;;;;;10.20;71.32;98532.34;5057238;28;19928;-71
2021/05/05 03:12:46;;;;;;;;;;;;;;;10.10;70.95;98527.34;5056833;28;19925;-71
2021/05/05 03:15:17;;;;;;;;;;;;;;;10.02;70.71;98528.34;5056478;28;19951;-71
2021/05/05 03:17:48;;;;;;;;;;;;;;;9.86;70.88;98532.03;5057003;28;19950;-71
2021/05/05 03:20:19;;;;;;;;;;;;;;;9.82;70.59;98535.47;5056372;28;19924;-71
2021/05/05 03:22:50;;;;;;;;;;;;;;;9.85;71.61;98528.63;5056930;28;19979;-71
2021/05/05 03:25:22;;;;;;;;;;;;;;;9.75;71.16;98529.66;5056615;28;19931;-71
2021/05/05 03:27:53;;;;;;;;;;;;;;;9.73;71.28;98531.38;5056636;28;19925;-71
2021/05/05 03:30:24;;;;;;;;;;;;;;;9.75;71.70;98533.91;5056550;28;20374;-71
2021/05/05 03:32:56;;;;;;;;;;;;;;;9.73;71.57;98530.53;5056376;28;19924;-71
2021/05/05 03:35:29;;;;;;;;;;;;;;;9.74;71.31;98532.22;5056697;28;19932;-71
2021/05/05 03:38:00;;;;;;;;;;;;;;;9.77;72.16;98527.06;5056545;28;20322;-71
2021/05/05 03:40:32;;;;;;;;;;;;;;;9.83;71.77;98524.44;5056382;28;19968;-71
2021/05/05 03:43:01;;;;;;;;;;;;;;;9.89;71.86;98529.41;5056256;28;20378;-71
2021/05/05 03:45:32;;;;;;;;;;;;;;;9.87;71.38;98523.50;5056227;28;19925;-71
2021/05/05 03:48:00;;;;;;;;;;;;;;;9.90;71.22;98528.56;5056397;28;20428;-71
2021/05/05 03:50:32;;;;;;;;;;;;;;;9.88;71.27;98525.19;5055854;28;20333;-71
2021/05/05 03:53:01;;;;;;;;;;;;;;;9.85;71.35;98520.16;5065071;28;19928;-71
2021/05/05 03:55:33;;;;;;;;;;;;;;;9.85;71.10;98525.25;5095997;28;20438;-71
2021/05/05 03:58:01;;;;;;;;;;;;;;;9.80;71.36;98521.94;5095125;28;20377;-71
2021/05/05 04:00:32;;;;;;;;;;;;;;;9.75;71.60;98529.66;5096221;28;19974;-71
2021/05/05 04:03:03;;;;;;;;;;;;;;;9.71;71.73;98527.19;5096087;28;19964;-71
2021/05/05 04:05:35;;;;;;;;;;;;;;;9.71;72.22;98533.13;5096078;28;19931;-71
2021/05/05 04:08:04;;;;;;;;;;;;;;;9.73;72.31;98530.53;5096061;28;19924;-71
2021/05/05 04:10:36;;;;;;;;;;;;;;;9.73;71.93;98530.53;5095630;28;20018;-71
2021/05/05 04:13:04;;;;;;;;;;;;;;;9.72;71.95;98523.75;5096226;28;19924;-71
2021/05/05 04:15:46;;;;;;;;;;;;;;;9.70;72.13;98521.22;5096189;28;20015;-72
2021/05/05 04:18:24;;;;;;;;;;;;;;;9.72;72.12;98522.03;5095743;28;20460;-71
2021/05/05 04:21:05;;;;;;;;;;;;;;;9.75;71.62;98516.91;5095802;28;19924;-71
2021/05/05 04:23:43;;;;;;;;;;;;;;;9.79;72.61;98507.53;5095718;28;20352;-71
2021/05/05 04:26:21;;;;;;;;;;;;;;;9.83;72.57;98502.34;5095663;28;20281;-71
2021/05/05 04:28:52;;;;;;;;;;;;;;;9.93;71.88;98508.13;5095691;28;19924;-71
2021/05/05 04:31:24;;;;;;;;;;;;;;;10.01;71.80;98512.22;5095578;28;19924;-70
2021/05/05 04:33:54;;;;;;;;;;;;;;;10.08;72.19;98505.28;5095752;28;20019;-71
2021/05/05 04:36:26;;;;;;;;;;;;;;;10.15;72.08;98514.53;5095522;28;20368;-71
2021/05/05 04:38:57;;;;;;;;;;;;;;;10.24;71.37;98514.41;5095356;28;19931;-71
2021/05/05 04:41:30;;;;;;;;;;;;;;;10.36;71.19;98509.06;5095386;28;20014;-71
2021/05/05 04:43:58;;;;;;;;;;;;;;;10.48;70.55;98502.91;5095300;28;19931;-71
2021/05/05 04:46:29;;;;;;;;;;;;;;;10.62;71.11;98508.56;5095302;28;20276;-72
2021/05/05 04:48:58;;;;;;;;;;;;;;;10.72;69.99;98513.44;5095025;28;19924;-71
2021/05/05 04:51:28;;;;;;;;;;;;;;;10.78;69.99;98513.31;5094853;28;19924;-71
2021/05/05 04:53:56;;;;;;;;;;;;;;;10.82;70.21;98500.50;5094979;28;19924;-71
2021/05/05 04:56:27;;;;;;;;;;;;;;;10.88;69.92;98498.66;5094851;28;19924;-71
2021/05/05 04:59:05;;;;;;;;;;;;;;;10.96;69.17;98506.16;5095233;28;19931;-71
2021/05/05 05:01:33;;;;;;;;;;;;;;;11.08;69.03;98501.66;5094697;28;20293;-70
2021/05/05 05:04:01;;;;;;;;;;;;;;;11.23;69.07;98500.44;5094891;28;19931;-70
2021/05/05 05:06:29;;;;;;;;;;;;;;;11.37;68.89;98498.44;5094712;28;20367;-71
2021/05/05 05:08:58;;;;;;;;;;;;;;;11.52;68.52;98505.72;5094607;28;19970;-71
2021/05/05 05:11:26;;;;;;;;;;;;;;;11.68;68.24;98507.09;5094783;28;19924;-71
2021/05/05 05:13:54;;;;;;;;;;;;;;;11.83;67.46;98504.16;5093327;28;19985;-71
2021/05/05 05:16:23;;;;;;;;;;;;;;;12.00;67.57;98512.25;5094944;28;19924;-70
2021/05/05 05:18:54;;;;;;;;;;;;;;;12.13;67.00;98511.94;5094341;28;19924;-71
2021/05/05 05:21:25;;;;;;;;;;;;;;;12.27;66.78;98504.72;5094655;28;19924;-71
2021/05/05 05:23:55;;;;;;;;;;;;;;;12.48;66.50;98501.59;5094318;28;19977;-71
2021/05/05 05:26:26;;;;;;;;;;;;;;;12.63;65.90;98498.63;5094401;28;19952;-72
2021/05/05 05:28:57;;;;;;;;;;;;;;;12.65;65.37;98501.97;5094595;28;19924;-71
2021/05/05 05:31:29;;;;;;;;;;;;;;;12.67;65.19;98500.19;5094454;28;19960;-71
2021/05/05 05:34:01;;;;;;;;;;;;;;;12.74;65.38;98502.53;5094585;28;19924;-72
2021/05/05 05:36:32;;;;;;;;;;;;;;;12.88;65.15;98493.66;5094440;28;19931;-71
2021/05/05 05:39:04;;;;;;;;;;;;;;;13.06;64.88;98493.97;5094251;28;19925;-71
2021/05/05 05:41:36;;;;;;;;;;;;;;;13.30;64.92;98493.22;5094450;28;20010;-71
2021/05/05 05:44:08;;;;;;;;;;;;;;;13.55;64.29;98497.59;5094433;28;19967;-71
2021/05/05 05:46:40;;;;;;;;;;;;;;;13.72;63.43;98490.22;5094313;28;19931;-71
2021/05/05 05:49:12;;;;;;;;;;;;;;;13.88;62.44;98488.81;5094296;28;19979;-71
2021/05/05 05:51:43;;;;;;;;;;;;;;;14.06;61.62;98480.47;5094525;28;20419;-71
2021/05/05 05:54:15;;;;;;;;;;;;;;;14.28;60.81;98475.44;5093876;28;19933;-71
2021/05/05 05:56:43;;;;;;;;;;;;;;;14.45;59.67;98468.03;5094199;28;19924;-71
2021/05/05 05:59:15;;;;;;;;;;;;;;;14.61;59.06;98467.41;5093997;28;19924;-71
2021/05/05 06:01:47;;;;;;;;;;;;;;;14.79;58.79;98465.91;5094119;28;19947;-71
2021/05/05 06:04:19;;;;;;;;;;;;;;;14.98;58.05;98463.50;5094177;28;19928;-71
2021/05/05 06:06:50;;;;;;;;;;;;;;;15.14;57.93;98464.59;5094199;28;19924;-71
2021/05/05 06:09:21;;;;;;;;;;;;;;;15.25;57.07;98457.31;5094211;28;19924;-71
2021/05/05 06:11:52;;;;;;;;;;;;;;;15.36;55.81;98457.69;5094073;28;19948;-71
2021/05/05 06:14:20;;;;;;;;;;;;;;;15.51;54.92;98452.00;5094079;28;19956;-71
2021/05/05 06:16:49;;;;;;;;;;;;;;;15.63;54.89;98446.34;5094176;28;19952;-71
2021/05/05 06:19:20;;;;;;;;;;;;;;;15.78;54.39;98450.88;5094087;28;19925;-72
2021/05/05 06:21:48;;;;;;;;;;;;;;;15.90;54.54;98442.66;5096129;28;19946;-71
2021/05/05 06:24:16;;;;;;;;;;;;;;;15.98;53.58;98440.56;5097967;28;19960;-71
2021/05/05 06:26:50;;;;;;;;;;;;;;;16.02;53.32;98442.13;5097802;28;19924;-71
2021/05/05 06:29:18;;;;;;;;;;;;;;;16.14;53.50;98439.91;5097620;28;20018;-71
2021/05/05 06:31:50;;;;;;;;;;;;;;;16.09;52.75;98435.81;5097881;28;19932;-71
2021/05/05 06:34:21;;;;;;;;;;;;;;;16.08;52.46;98434.13;5097824;28;19947;-71
2021/05/05 06:36:54;;;;;;;;;;;;;;;16.15;51.91;98431.31;5098047;28;19924;-71
2021/05/05 06:39:24;;;;;;;;;;;;;;;16.21;51.63;98420.72;5097925;28;19924;-71
2021/05/05 06:41:56;;;;;;;;;;;;;;;16.39;51.86;98414.75;5097481;28;19924;-71
2021/05/05 06:44:27;;;;;;;;;;;;;;;16.55;51.17;98413.22;5097585;28;19924;-71
2021/05/05 06:46:56;;;;;;;;;;;;;;;16.74;51.35;98412.34;5097931;28;19924;-72
2021/05/05 06:49:24;;;;;;;;;;;;;;;16.89;51.41;98415.94;5097428;28;19925;-71
2021/05/05 06:51:53;;;;;;;;;;;;;;;16.96;50.92;98412.19;5097263;28;20023;-72
2021/05/05 06:54:22;;;;;;;;;;;;;;;17.17;50.73;98415.47;5096919;28;19930;-71
2021/05/05 06:56:50;;;;;;;;;;;;;;;17.26;50.01;98407.28;5097433;28;19924;-72
2021/05/05 06:59:18;;;;;;;;;;;;;;;17.33;49.45;98412.09;5096981;28;19924;-72
2021/05/05 07:01:49;;;;;;;;;;;;;;;17.39;49.82;98404.06;5097205;28;19928;-71
2021/05/05 07:04:18;;;;;;;;;;;;;;;17.47;49.43;98403.66;5097182;28;20287;-71
2021/05/05 07:06:49;;;;;;;;;;;;;;;17.40;49.23;98407.44;5096855;28;20350;-72
2021/05/05 07:09:36;;;;;;;;;;;;;;;17.32;49.42;98404.44;5095743;28;20015;-72
2021/05/05 07:12:08;;;;;;;;;;;;;;;17.24;49.11;98407.38;5097178;28;19932;-72
2021/05/05 07:14:39;;;;;;;;;;;;;;;17.27;49.16;98402.06;5096951;28;19950;-72
2021/05/05 07:17:07;;;;;;;;;;;;;;;17.24;48.83;98397.06;5097305;28;19924;-72
2021/05/05 07:19:39;;;;;;;;;;;;;;;17.23;48.88;98397.13;5096749;28;19924;-72
2021/05/05 07:22:10;;;;;;;;;;;;;;;17.19;48.70;98393.88;5096676;28;20365;-72
2021/05/05 07:24:41;;;;;;;;;;;;;;;17.20;48.38;98392.94;5096634;28;20342;-72
2021/05/05 07:27:15;;;;;;;;;;;;;;;17.28;48.48;98393.41;5096682;28;19993;-72
2021/05/05 07:29:44;;;;;;;;;;;;;;;17.43;48.08;98387.53;5096770;28;19925;-72
2021/05/05 07:32:15;;;;;;;;;;;;;;;17.56;48.21;98381.78;5096538;28;20377;-72
2021/05/05 07:34:48;;;;;;;;;;;;;;;17.66;47.65;98383.00;5096450;28;20365;-72
2021/05/05 07:37:27;;;;;;;;;;;;;;;17.81;47.19;98379.63;5097077;28;20305;-72
2021/05/05 07:40:23;;;;;;;;;;;;;;;18.05;47.22;98374.06;5095958;28;19930;-72
2021/05/05 07:45:45;;;;;;;;;;;;;;;18.40;46.30;98377.38;5094977;28;19925;-72
2021/05/05 07:48:24;;;;;;;;;;;;;;;18.44;45.39;98368.56;5096406;28;19924;-71
2021/05/05 07:50:57;;;;;;;;;;;;;;;18.40;45.18;98366.22;5096366;28;19924;-73
2021/05/05 07:53:25;;;;;;;;;;;;;;;18.58;45.15;98371.25;5095127;28;19931;-73
2021/05/05 07:55:54;;;;;;;;;;;;;;;18.66;44.58;98363.94;5095546;28;20293;-71
2021/05/05 07:58:22;;;;;;;;;;;;;;;18.71;44.03;98364.47;5096495;28;19924;-72
2021/05/05 08:00:53;;;;;;;;;;;;;;;18.70;44.04;98368.00;5095625;28;19924;-73
2021/05/05 08:03:24;;;;;;;;;;;;;;;18.58;44.48;98366.09;5096090;28;20407;-71
2021/05/05 08:05:55;;;;;;;;;;;;;;;18.52;44.40;98366.41;5096010;28;19924;-71
2021/05/05 08:08:24;;;;;;;;;;;;;;;18.48;43.85;98359.75;5095657;28;19928;-73
2021/05/05 08:10:55;;;;;;;;;;;;;;;18.59;43.95;98365.19;5095582;28;19928;-69
2021/05/05 08:13:23;;;;;;;;;;;;;;;18.72;43.26;98355.81;5077853;28;19931;-73
2021/05/05 08:15:51;;;;;;;;;;;;;;;18.80;43.49;98351.97;5096400;28;19923;-70
2021/05/05 08:18:19;;;;;;;;;;;;;;;18.87;44.01;98355.91;5095930;28;19931;-73
2021/05/05 08:20:48;;;;;;;;;;;;;;;18.98;44.37;98353.56;5095430;28;19969;-73
2021/05/05 08:23:20;;;;;;;;;;;;;;;18.92;44.31;98346.13;5095663;28;19989;-73
2021/05/05 08:25:49;;;;;;;;;;;;;;;18.76;43.88;98342.75;5095399;28;19947;-72
2021/05/05 08:28:17;;;;;;;;;;;;;;;18.59;43.71;98341.09;5095659;28;20023;-70
2021/05/05 08:30:48;;;;;;;;;;;;;;;18.54;44.50;98341.34;5095462;28;19946;-73
2021/05/05 08:33:19;;;;;;;;;;;;;;;18.65;44.15;98341.56;5095548;28;19924;-73
2021/05/05 08:35:50;;;;;;;;;;;;;;;18.90;44.25;98335.06;5095184;28;19978;-73
2021/05/05 08:38:18;;;;;;;;;;;;;;;19.13;44.09;98332.00;5095067;28;19954;-73
2021/05/05 08:40:47;;;;;;;;;;;;;;;19.37;43.26;98335.78;5095239;28;19971;-73
2021/05/05 08:43:17;;;;;;;;;;;;;;;19.47;42.44;98331.75;5094742;28;19939;-73
2021/05/05 08:45:48;;;;;;;;;;;;;;;19.69;42.11;98332.19;5095208;28;20325;-71
2021/05/05 08:48:21;;;;;;;;;;;;;;;19.74;42.17;98330.16;5095243;28;19928;-71
2021/05/05 08:50:53;;;;;;;;;;;;;;;19.65;43.36;98329.88;5095204;28;19931;-73
2021/05/05 08:53:21;;;;;;;;;;;;;;;19.66;42.89;98334.09;5094093;28;20366;-72
2021/05/05 08:55:49;;;;;;;;;;;;;;;19.81;43.22;98326.28;5095063;28;19971;-70
2021/05/05 08:58:20;;;;;;;;;;;;;;;19.80;41.43;98329.78;5094958;28;20019;-71
2021/05/05 09:00:49;;;;;;;;;;;;;;;19.85;42.17;98321.72;5094732;28;19924;-71
2021/05/05 09:03:29;;;;;;;;;;;;;;;19.98;43.37;98320.06;5094990;28;20348;-73
2021/05/05 09:05:58;;;;;;;;;;;;;;;20.13;41.62;98326.91;5094699;28;19928;-70
2021/05/05 09:08:27;;;;;;;;;;;;;;;20.19;41.97;98315.34;5094399;28;19971;-71
2021/05/05 09:11:00;;;;;;;;;;;;;;;20.20;41.02;98311.81;5094824;28;19938;-70
2021/05/05 09:13:39;;;;;;;;;;;;;;;20.26;40.22;98308.88;5094787;28;19924;-71
2021/05/05 09:16:12;;;;;;;;;;;;;;;20.28;41.07;98309.59;5094736;28;19924;-70
2021/05/05 09:19:03;;;;;;;;;;;;;;;20.32;41.68;98305.94;5072458;28;19924;-73
2021/05/05 09:21:39;;;;;;;;;;;;;;;20.44;42.39;98305.16;5072221;28;20375;-71
2021/05/05 09:24:18;;;;;;;;;;;;;;;20.42;42.03;98296.66;5072221;28;19931;-71
2021/05/05 09:26:49;;;;;;;;;;;;;;;20.26;42.03;98288.16;5071961;28;19928;-73
2021/05/05 09:29:18;;;;;;;;;;;;;;;20.40;42.03;98277.75;5072380;28;19966;-71
2021/05/05 09:31:50;;;;;;;;;;;;;;;20.44;41.98;98289.59;5072467;28;19935;-71
2021/05/05 09:34:25;;;;;;;;;;;;;;;20.58;42.54;98285.22;5072003;28;19935;-71
2021/05/05 09:36:57;;;;;;;;;;;;;;;20.84;42.12;98283.53;5072317;28;19932;-70
2021/05/05 09:39:30;;;;;;;;;;;;;;;21.01;41.64;98283.28;5072060;28;19925;-72
2021/05/05 09:42:01;;;;;;;;;;;;;;;21.02;42.38;98284.94;5072155;28;19925;-71
2021/05/05 09:44:32;;;;;;;;;;;;;;;20.97;41.87;98284.41;5071723;28;19929;-69
2021/05/05 09:47:02;;;;;;;;;;;;;;;20.94;42.22;98283.78;5072145;28;20405;-71
2021/05/05 09:49:32;;;;;;;;;;;;;;;20.83;42.31;98274.09;5071943;28;19970;-71
2021/05/05 09:52:06;;;;;;;;;;;;;;;20.64;42.05;98281.38;5072135;28;20398;-70
2021/05/05 09:54:35;;;;;;;;;;;;;;;20.63;42.27;98282.34;5071799;28;19931;-75
2021/05/05 09:57:14;;;;;;;;;;;;;;;20.48;42.64;98276.34;5091421;28;19931;-71
2021/05/05 09:59:56;;;;;;;;;;;;;;;20.14;43.21;98286.28;5098249;28;19924;-72
2021/05/05 10:02:29;;;;;;;;;;;;;;;19.94;43.50;98280.56;5098572;28;19931;-71
2021/05/05 10:05:01;;;;;;;;;;;;;;;20.00;43.19;98263.81;5098248;28;20040;-70
2021/05/05 10:07:53;;;;;;;;;;;;;;;20.29;42.44;98264.66;5098125;28;19924;-73
2021/05/05 10:10:21;;;;;;;;;;;;;;;20.65;42.72;98259.72;5088830;28;19927;-71
2021/05/05 10:12:49;;;;;;;;;;;;;;;20.56;42.53;98268.09;5098222;28;20018;-71
2021/05/05 10:15:21;;;;;;;;;;;;;;;20.46;42.54;98261.81;5098254;28;19960;-71
2021/05/05 10:17:52;;;;;;;;;;;;;;;20.27;43.02;98261.31;5097723;28;19924;-72
2021/05/05 10:20:24;;;;;;;;;;;;;;;20.08;43.74;98254.66;5098221;28;19924;-73
2021/05/05 10:22:56;;;;;;;;;;;;;;;19.87;44.60;98255.97;5097870;28;19924;-71
2021/05/05 10:25:28;;;;;;;;;;;;;;;19.78;43.79;98247.94;5097883;28;20324;-71
2021/05/05 10:27:57;;;;;;;;;;;;;;;19.78;44.73;98247.94;5097919;28;20438;-70
2021/05/05 10:30:26;;;;;;;;;;;;;;;19.86;44.69;98246.56;5097616;28;19973;-72
2021/05/05 10:33:15;;;;;;;;;;;;;;;19.77;44.79;98247.09;5097913;28;19928;-72
2021/05/05 10:35:46;;;;;;;;;;;;;;;19.64;45.27;98248.78;5080009;28;19963;-73
2021/05/05 10:38:28;;;;;;;;;;;;;;;19.67;44.80;98235.66;5097505;28;19932;-69
2021/05/05 10:41:07;;;;;;;;;;;;;;;19.79;45.34;98245.25;5097267;28;19928;-69
2021/05/05 10:43:46;;;;;;;;;;;;;;;19.83;45.76;98246.72;5097624;28;19931;-71
2021/05/05 10:46:24;;;;;;;;;;;;;;;19.72;46.45;98259.50;5097210;28;19924;-71
2021/05/05 10:49:03;;;;;;;;;;;;;;;19.52;47.55;98267.63;5097779;28;20022;-73
2021/05/05 10:51:41;;;;;;;;;;;;;;;19.38;47.74;98260.69;5097524;28;19977;-71
2021/05/05 10:54:10;;;;;;;;;;;;;;;19.22;47.65;98267.63;5097173;28;20333;-68
2021/05/05 10:56:38;;;;;;;;;;;;;;;19.15;47.78;98257.72;5097228;28;20373;-72
2021/05/05 10:59:07;;;;;;;;;;;;;;;19.14;47.27;98250.91;5097261;28;19953;-72
2021/05/05 11:01:43;;;;;;;;;;;;;;;19.22;48.13;98253.84;5097213;28;20361;-71
2021/05/05 11:04:13;;;;;;;;;;;;;;;19.21;48.34;98247.88;5096884;28;19924;-72
2021/05/05 11:06:45;;;;;;;;;;;;;;;19.15;48.72;98257.72;5096788;28;19931;-72
2021/05/05 11:09:24;;;;;;;;;;;;;;;19.07;48.85;98257.34;5097078;28;19971;-72
2021/05/05 11:12:02;;;;;;;;;;;;;;;19.09;48.67;98263.25;5097179;28;20007;-71
2021/05/05 11:14:48;;;;;;;;;;;;;;;19.14;48.97;98256.06;5097067;28;19930;-73
2021/05/05 11:17:28;;;;;;;;;;;;;;;19.25;48.87;98243.34;5096815;28;20014;-71
2021/05/05 11:20:00;;;;;;;;;;;;;;;19.29;49.43;98266.34;5096767;28;19970;-71
2021/05/05 11:22:39;;;;;;;;;;;;;;;19.28;48.50;98269.03;5096693;28;19970;-72
2021/05/05 11:25:21;;;;;;;;;;;;;;;19.22;48.88;98269.38;5096825;28;19928;-70
2021/05/05 11:27:53;;;;;;;;;;;;;;;19.13;50.07;98285.44;5096527;28;19924;-71
2021/05/05 11:30:40;;;;;;;;;;;;;;;19.07;50.20;98278.03;5096731;28;20396;-73
2021/05/05 11:33:11;;;;;;;;;;;;;;;19.00;49.88;98280.16;5096760;28;20006;-72
2021/05/05 11:35:43;;;;;;;;;;;;;;;19.03;49.49;98269.63;5096593;28;20365;-72
2021/05/05 11:38:23;;;;;;;;;;;;;;;19.11;49.35;98276.94;5096613;28;19928;-72
2021/05/05 11:40:59;;;;;;;;;;;;;;;19.21;48.87;98267.72;5096216;28;19924;-72
2021/05/05 11:43:29;;;;;;;;;;;;;;;19.32;49.89;98275.69;5096491;28;19928;-72
2021/05/05 11:46:03;;;;;;;;;;;;;;;19.36;49.44;98272.06;5096356;28;19959;-72
2021/05/05 11:48:36;;;;;;;;;;;;;;;19.45;48.80;98263.75;5096429;28;19924;-72
2021/05/05 11:51:18;;;;;;;;;;;;;;;19.57;48.66;98265.59;5096785;28;19924;-73
2021/05/05 11:53:50;;;;;;;;;;;;;;;19.84;48.32;98263.91;5095219;28;19932;-74
2021/05/05 11:56:23;;;;;;;;;;;;;;;19.97;47.86;98264.00;5095992;28;19924;-73
2021/05/05 11:58:56;;;;;;;;;;;;;;;20.06;48.54;98258.25;5097263;28;19924;-74
2021/05/05 12:01:46;;;;;;;;;;;;;;;20.20;47.44;98260.00;5096110;28;19925;-74
2021/05/05 12:04:22;;;;;;;;;;;;;;;20.36;46.94;98253.81;5092767;28;19935;-73
2021/05/05 12:07:07;;;;;;;;;;;;;;;20.36;46.05;98258.97;5095833;28;20384;-71
2021/05/05 12:09:39;;;;;;;;;;;;;;;20.21;47.00;98251.28;5095690;28;20296;-71
2021/05/05 12:12:11;;;;;;;;;;;;;;;20.12;46.92;98251.88;5095950;28;19928;-73
2021/05/05 12:14:41;;;;;;;;;;;;;;;20.12;46.68;98241.50;5095407;28;19958;-73
2021/05/05 12:17:16;;;;;;;;;;;;;;;20.14;47.18;98242.25;5095701;28;19924;-73
2021/05/05 12:19:52;;;;;;;;;;;;;;;20.12;46.15;98246.69;5094688;28;19924;-72
2021/05/05 12:22:21;;;;;;;;;;;;;;;20.06;45.77;98243.56;5095601;28;19971;-71
2021/05/05 12:25:04;;;;;;;;;;;;;;;20.04;45.28;98248.00;5094969;28;20434;-74
2021/05/05 12:27:35;;;;;;;;;;;;;;;20.05;46.18;98244.50;5095260;28;19947;-74
2021/05/05 12:30:08;;;;;;;;;;;;;;;20.12;45.84;98231.16;5095450;28;19931;-74
2021/05/05 12:32:42;;;;;;;;;;;;;;;20.31;46.71;98231.69;5095287;28;19970;-74
2021/05/05 12:35:20;;;;;;;;;;;;;;;20.43;46.54;98223.13;5095231;28;19931;-74
2021/05/05 12:37:52;;;;;;;;;;;;;;;20.47;46.11;98222.00;5095846;28;19925;-74
2021/05/05 12:40:25;;;;;;;;;;;;;;;20.44;46.29;98219.63;5094003;28;19924;-74
2021/05/05 12:43:10;;;;;;;;;;;;;;;20.37;45.93;98213.19;5095164;28;19931;-74
2021/05/05 12:45:43;;;;;;;;;;;;;;;20.28;45.12;98205.97;5095304;28;19924;-74
2021/05/05 12:48:22;;;;;;;;;;;;;;;20.12;44.63;98200.91;5094964;28;19924;-74
2021/05/05 12:50:54;;;;;;;;;;;;;;;20.08;45.04;98196.84;5095252;28;19954;-74
2021/05/05 12:53:25;;;;;;;;;;;;;;;20.17;45.94;98192.84;5094785;28;20294;-72
2021/05/05 12:55:57;;;;;;;;;;;;;;;20.25;46.48;98195.81;5095935;28;19924;-72
2021/05/05 12:58:40;;;;;;;;;;;;;;;20.38;46.97;98191.50;5094648;28;19924;-73
2021/05/05 13:01:12;;;;;;;;;;;;;;;20.41;46.32;98186.13;5094647;28;19928;-74
2021/05/05 13:03:45;;;;;;;;;;;;;;;20.45;45.81;98190.16;5093625;28;20339;-74
2021/05/05 13:06:18;;;;;;;;;;;;;;;20.42;45.49;98182.63;5093882;28;20460;-73
2021/05/05 13:08:52;;;;;;;;;;;;;;;20.26;46.06;98213.00;5094883;28;19967;-74
2021/05/05 13:11:25;;;;;;;;;;;;;;;19.73;45.90;98218.91;5094714;28;19930;-74
2021/05/05 13:13:59;;;;;;;;;;;;;;;18.99;46.40;98187.97;5094650;28;19924;-72
2021/05/05 13:16:44;;;;;;;;;;;;;;;18.48;47.26;98204.72;5093207;28;19932;-72
2021/05/05 13:30:36;;;;;;;;;;;;;;;16.81;48.84;98240.22;5051831;28;19925;-73
2021/05/05 13:33:09;;;;;;;;;;;;;;;16.52;49.52;98245.94;5052234;28;19933;-74